<?xml version="1.0" encoding="UTF-8" standalone="no" ?>
<gpx xmlns="http://www.topografix.com/GPX/1/1" xmlns:xsi="http://www.w3.org/2001/XMLSchema-instance" xsi:schemaLocation="http://www.topografix.com/GPX/1/1 http://www.topografix.com/GPX/1/1/gpx.xsd" version="1.1" creator="VisuGPX - https://www.visugpx.com">
  <metadata>
    <name>Vacances 2021</name>
  </metadata>
  <trk>
    <name><![CDATA[Journal actif: 2021-07-28 09:49]]></name>
    <trkseg>
      <trkpt lat="49.4181" lon="3.00899">
        <ele>54.93</ele>
        <time>2021-07-28T11:49:18Z</time>
      </trkpt>
      <trkpt lat="49.41808" lon="3.00905">
        <ele>54.93</ele>
        <time>2021-07-28T11:50:20Z</time>
      </trkpt>
      <trkpt lat="49.41809" lon="3.00883">
        <ele>54.45</ele>
        <time>2021-07-28T11:50:24Z</time>
      </trkpt>
      <trkpt lat="49.41811" lon="3.00883">
        <ele>53.97</ele>
        <time>2021-07-28T11:50:25Z</time>
      </trkpt>
      <trkpt lat="49.41813" lon="3.00882">
        <ele>53.97</ele>
        <time>2021-07-28T11:50:26Z</time>
      </trkpt>
      <trkpt lat="49.41815" lon="3.00882">
        <ele>53.97</ele>
        <time>2021-07-28T11:50:27Z</time>
      </trkpt>
      <trkpt lat="49.41817" lon="3.00881">
        <ele>53.49</ele>
        <time>2021-07-28T11:50:28Z</time>
      </trkpt>
      <trkpt lat="49.4183" lon="3.00878">
        <ele>53.49</ele>
        <time>2021-07-28T11:50:34Z</time>
      </trkpt>
      <trkpt lat="49.41832" lon="3.00878">
        <ele>53.49</ele>
        <time>2021-07-28T11:50:35Z</time>
      </trkpt>
      <trkpt lat="49.41832" lon="3.00878">
        <ele>53.49</ele>
        <time>2021-07-28T11:50:36Z</time>
      </trkpt>
      <trkpt lat="49.41833" lon="3.00877">
        <ele>53.97</ele>
        <time>2021-07-28T11:50:37Z</time>
      </trkpt>
      <trkpt lat="49.41834" lon="3.00876">
        <ele>54.93</ele>
        <time>2021-07-28T11:50:50Z</time>
      </trkpt>
      <trkpt lat="49.41831" lon="3.00878">
        <ele>54.45</ele>
        <time>2021-07-28T11:50:54Z</time>
      </trkpt>
      <trkpt lat="49.41831" lon="3.00878">
        <ele>54.45</ele>
        <time>2021-07-28T11:50:55Z</time>
      </trkpt>
      <trkpt lat="49.41829" lon="3.00878">
        <ele>54.45</ele>
        <time>2021-07-28T11:50:56Z</time>
      </trkpt>
      <trkpt lat="49.41825" lon="3.00879">
        <ele>54.45</ele>
        <time>2021-07-28T11:50:57Z</time>
      </trkpt>
      <trkpt lat="49.41821" lon="3.0088">
        <ele>54.45</ele>
        <time>2021-07-28T11:50:58Z</time>
      </trkpt>
      <trkpt lat="49.41757" lon="3.00897">
        <ele>53.49</ele>
        <time>2021-07-28T11:51:08Z</time>
      </trkpt>
      <trkpt lat="49.41657" lon="3.00886">
        <ele>48.68</ele>
        <time>2021-07-28T11:51:22Z</time>
      </trkpt>
      <trkpt lat="49.41529" lon="3.00847">
        <ele>43.88</ele>
        <time>2021-07-28T11:51:40Z</time>
      </trkpt>
      <trkpt lat="49.41467" lon="3.00828">
        <ele>41.95</ele>
        <time>2021-07-28T11:51:50Z</time>
      </trkpt>
      <trkpt lat="49.41477" lon="3.00845">
        <ele>41.95</ele>
        <time>2021-07-28T11:52:01Z</time>
      </trkpt>
      <trkpt lat="49.41466" lon="3.00818">
        <ele>41.95</ele>
        <time>2021-07-28T11:52:02Z</time>
      </trkpt>
      <trkpt lat="49.41465" lon="3.00815">
        <ele>41.95</ele>
        <time>2021-07-28T11:52:03Z</time>
      </trkpt>
      <trkpt lat="49.41465" lon="3.0081">
        <ele>41.95</ele>
        <time>2021-07-28T11:52:04Z</time>
      </trkpt>
      <trkpt lat="49.41465" lon="3.00804">
        <ele>41.47</ele>
        <time>2021-07-28T11:52:05Z</time>
      </trkpt>
      <trkpt lat="49.41464" lon="3.00798">
        <ele>41.47</ele>
        <time>2021-07-28T11:52:06Z</time>
      </trkpt>
      <trkpt lat="49.41458" lon="3.007">
        <ele>40.51</ele>
        <time>2021-07-28T11:52:19Z</time>
      </trkpt>
      <trkpt lat="49.4145" lon="3.0063">
        <ele>39.07</ele>
        <time>2021-07-28T11:52:28Z</time>
      </trkpt>
      <trkpt lat="49.41449" lon="3.00616">
        <ele>39.07</ele>
        <time>2021-07-28T11:52:29Z</time>
      </trkpt>
      <trkpt lat="49.41449" lon="3.00616">
        <ele>39.07</ele>
        <time>2021-07-28T11:52:30Z</time>
      </trkpt>
      <trkpt lat="49.41449" lon="3.0055">
        <ele>39.55</ele>
        <time>2021-07-28T11:52:41Z</time>
      </trkpt>
      <trkpt lat="49.41449" lon="3.00547">
        <ele>39.55</ele>
        <time>2021-07-28T11:52:42Z</time>
      </trkpt>
      <trkpt lat="49.41452" lon="3.00536">
        <ele>40.03</ele>
        <time>2021-07-28T11:52:43Z</time>
      </trkpt>
      <trkpt lat="49.41454" lon="3.00536">
        <ele>40.03</ele>
        <time>2021-07-28T11:52:44Z</time>
      </trkpt>
      <trkpt lat="49.41457" lon="3.00536">
        <ele>40.51</ele>
        <time>2021-07-28T11:52:45Z</time>
      </trkpt>
      <trkpt lat="49.41459" lon="3.00536">
        <ele>40.51</ele>
        <time>2021-07-28T11:52:46Z</time>
      </trkpt>
      <trkpt lat="49.41462" lon="3.00536">
        <ele>40.99</ele>
        <time>2021-07-28T11:52:47Z</time>
      </trkpt>
      <trkpt lat="49.41464" lon="3.00536">
        <ele>40.99</ele>
        <time>2021-07-28T11:52:48Z</time>
      </trkpt>
      <trkpt lat="49.41466" lon="3.00536">
        <ele>41.47</ele>
        <time>2021-07-28T11:52:49Z</time>
      </trkpt>
      <trkpt lat="49.41468" lon="3.00536">
        <ele>40.99</ele>
        <time>2021-07-28T11:52:50Z</time>
      </trkpt>
      <trkpt lat="49.4147" lon="3.00536">
        <ele>40.99</ele>
        <time>2021-07-28T11:52:51Z</time>
      </trkpt>
      <trkpt lat="49.41473" lon="3.00536">
        <ele>41.47</ele>
        <time>2021-07-28T11:52:52Z</time>
      </trkpt>
      <trkpt lat="49.41475" lon="3.00536">
        <ele>41.47</ele>
        <time>2021-07-28T11:52:53Z</time>
      </trkpt>
      <trkpt lat="49.41475" lon="3.00536">
        <ele>41.47</ele>
        <time>2021-07-28T11:52:54Z</time>
      </trkpt>
      <trkpt lat="49.41475" lon="3.00536">
        <ele>41.47</ele>
        <time>2021-07-28T11:52:55Z</time>
      </trkpt>
      <trkpt lat="49.41475" lon="3.00536">
        <ele>41.47</ele>
        <time>2021-07-28T11:52:56Z</time>
      </trkpt>
      <trkpt lat="49.41475" lon="3.00536">
        <ele>41.47</ele>
        <time>2021-07-28T11:52:57Z</time>
      </trkpt>
      <trkpt lat="49.41475" lon="3.00536">
        <ele>41.47</ele>
        <time>2021-07-28T11:52:59Z</time>
      </trkpt>
      <trkpt lat="49.41475" lon="3.00536">
        <ele>40.99</ele>
        <time>2021-07-28T11:53:00Z</time>
      </trkpt>
      <trkpt lat="49.41474" lon="3.00536">
        <ele>40.03</ele>
        <time>2021-07-28T11:53:03Z</time>
      </trkpt>
      <trkpt lat="49.41471" lon="3.00536">
        <ele>39.55</ele>
        <time>2021-07-28T11:53:04Z</time>
      </trkpt>
      <trkpt lat="49.41469" lon="3.00536">
        <ele>39.55</ele>
        <time>2021-07-28T11:53:05Z</time>
      </trkpt>
      <trkpt lat="49.41464" lon="3.00536">
        <ele>39.55</ele>
        <time>2021-07-28T11:53:06Z</time>
      </trkpt>
      <trkpt lat="49.41464" lon="3.00536">
        <ele>40.03</ele>
        <time>2021-07-28T11:53:07Z</time>
      </trkpt>
      <trkpt lat="49.41456" lon="3.00536">
        <ele>40.99</ele>
        <time>2021-07-28T11:53:18Z</time>
      </trkpt>
      <trkpt lat="49.41449" lon="3.00546">
        <ele>41.47</ele>
        <time>2021-07-28T11:53:20Z</time>
      </trkpt>
      <trkpt lat="49.41449" lon="3.00546">
        <ele>41.47</ele>
        <time>2021-07-28T11:53:21Z</time>
      </trkpt>
      <trkpt lat="49.41449" lon="3.00549">
        <ele>41.95</ele>
        <time>2021-07-28T11:53:22Z</time>
      </trkpt>
      <trkpt lat="49.4145" lon="3.00627">
        <ele>40.51</ele>
        <time>2021-07-28T11:53:32Z</time>
      </trkpt>
      <trkpt lat="49.41461" lon="3.00757">
        <ele>40.03</ele>
        <time>2021-07-28T11:53:45Z</time>
      </trkpt>
      <trkpt lat="49.41465" lon="3.00812">
        <ele>39.07</ele>
        <time>2021-07-28T11:53:51Z</time>
      </trkpt>
      <trkpt lat="49.41466" lon="3.00821">
        <ele>38.59</ele>
        <time>2021-07-28T11:53:52Z</time>
      </trkpt>
      <trkpt lat="49.41467" lon="3.00831">
        <ele>38.11</ele>
        <time>2021-07-28T11:53:53Z</time>
      </trkpt>
      <trkpt lat="49.41468" lon="3.00841">
        <ele>38.11</ele>
        <time>2021-07-28T11:53:54Z</time>
      </trkpt>
      <trkpt lat="49.41466" lon="3.00855">
        <ele>38.11</ele>
        <time>2021-07-28T11:53:55Z</time>
      </trkpt>
      <trkpt lat="49.41464" lon="3.00864">
        <ele>37.63</ele>
        <time>2021-07-28T11:53:56Z</time>
      </trkpt>
      <trkpt lat="49.41462" lon="3.00873">
        <ele>37.63</ele>
        <time>2021-07-28T11:53:57Z</time>
      </trkpt>
      <trkpt lat="49.41459" lon="3.00882">
        <ele>37.63</ele>
        <time>2021-07-28T11:53:58Z</time>
      </trkpt>
      <trkpt lat="49.41457" lon="3.0089">
        <ele>37.63</ele>
        <time>2021-07-28T11:53:59Z</time>
      </trkpt>
      <trkpt lat="49.41456" lon="3.00897">
        <ele>38.11</ele>
        <time>2021-07-28T11:54:00Z</time>
      </trkpt>
      <trkpt lat="49.41454" lon="3.00903">
        <ele>38.11</ele>
        <time>2021-07-28T11:54:01Z</time>
      </trkpt>
      <trkpt lat="49.41441" lon="3.00905">
        <ele>39.55</ele>
        <time>2021-07-28T11:54:08Z</time>
      </trkpt>
      <trkpt lat="49.41438" lon="3.00905">
        <ele>39.55</ele>
        <time>2021-07-28T11:54:09Z</time>
      </trkpt>
      <trkpt lat="49.41433" lon="3.00903">
        <ele>39.07</ele>
        <time>2021-07-28T11:54:10Z</time>
      </trkpt>
      <trkpt lat="49.41361" lon="3.00879">
        <ele>38.11</ele>
        <time>2021-07-28T11:54:20Z</time>
      </trkpt>
      <trkpt lat="49.41279" lon="3.00845">
        <ele>35.71</ele>
        <time>2021-07-28T11:54:29Z</time>
      </trkpt>
      <trkpt lat="49.41272" lon="3.00842">
        <ele>35.71</ele>
        <time>2021-07-28T11:54:30Z</time>
      </trkpt>
      <trkpt lat="49.41264" lon="3.00839">
        <ele>36.19</ele>
        <time>2021-07-28T11:54:31Z</time>
      </trkpt>
      <trkpt lat="49.41127" lon="3.00854">
        <ele>36.19</ele>
        <time>2021-07-28T11:54:45Z</time>
      </trkpt>
      <trkpt lat="49.4101" lon="3.00834">
        <ele>36.19</ele>
        <time>2021-07-28T11:54:58Z</time>
      </trkpt>
      <trkpt lat="49.40892" lon="3.00804">
        <ele>35.23</ele>
        <time>2021-07-28T11:55:09Z</time>
      </trkpt>
      <trkpt lat="49.40747" lon="3.0077">
        <ele>36.67</ele>
        <time>2021-07-28T11:55:21Z</time>
      </trkpt>
      <trkpt lat="49.40638" lon="3.00774">
        <ele>34.26</ele>
        <time>2021-07-28T11:55:32Z</time>
      </trkpt>
      <trkpt lat="49.40627" lon="3.00771">
        <ele>34.74</ele>
        <time>2021-07-28T11:55:33Z</time>
      </trkpt>
      <trkpt lat="49.40617" lon="3.00768">
        <ele>33.78</ele>
        <time>2021-07-28T11:55:34Z</time>
      </trkpt>
      <trkpt lat="49.40608" lon="3.00764">
        <ele>31.86</ele>
        <time>2021-07-28T11:55:35Z</time>
      </trkpt>
      <trkpt lat="49.406" lon="3.00756">
        <ele>31.38</ele>
        <time>2021-07-28T11:55:36Z</time>
      </trkpt>
      <trkpt lat="49.40594" lon="3.0075">
        <ele>30.9</ele>
        <time>2021-07-28T11:55:37Z</time>
      </trkpt>
      <trkpt lat="49.40587" lon="3.00737">
        <ele>31.86</ele>
        <time>2021-07-28T11:55:38Z</time>
      </trkpt>
      <trkpt lat="49.40582" lon="3.00726">
        <ele>31.38</ele>
        <time>2021-07-28T11:55:39Z</time>
      </trkpt>
      <trkpt lat="49.40572" lon="3.00701">
        <ele>31.86</ele>
        <time>2021-07-28T11:55:40Z</time>
      </trkpt>
      <trkpt lat="49.40541" lon="3.00608">
        <ele>30.9</ele>
        <time>2021-07-28T11:55:48Z</time>
      </trkpt>
      <trkpt lat="49.40538" lon="3.00596">
        <ele>31.38</ele>
        <time>2021-07-28T11:55:49Z</time>
      </trkpt>
      <trkpt lat="49.40533" lon="3.00572">
        <ele>31.38</ele>
        <time>2021-07-28T11:55:51Z</time>
      </trkpt>
      <trkpt lat="49.40531" lon="3.00561">
        <ele>31.86</ele>
        <time>2021-07-28T11:55:52Z</time>
      </trkpt>
      <trkpt lat="49.40528" lon="3.00551">
        <ele>31.86</ele>
        <time>2021-07-28T11:55:53Z</time>
      </trkpt>
      <trkpt lat="49.40524" lon="3.00547">
        <ele>31.86</ele>
        <time>2021-07-28T11:55:54Z</time>
      </trkpt>
      <trkpt lat="49.40518" lon="3.00541">
        <ele>31.86</ele>
        <time>2021-07-28T11:55:55Z</time>
      </trkpt>
      <trkpt lat="49.40513" lon="3.00536">
        <ele>32.34</ele>
        <time>2021-07-28T11:55:56Z</time>
      </trkpt>
      <trkpt lat="49.40508" lon="3.00534">
        <ele>32.34</ele>
        <time>2021-07-28T11:55:57Z</time>
      </trkpt>
      <trkpt lat="49.4044" lon="3.00506">
        <ele>31.38</ele>
        <time>2021-07-28T11:56:08Z</time>
      </trkpt>
      <trkpt lat="49.40437" lon="3.00505">
        <ele>32.34</ele>
        <time>2021-07-28T11:56:22Z</time>
      </trkpt>
      <trkpt lat="49.40424" lon="3.00497">
        <ele>31.86</ele>
        <time>2021-07-28T11:56:42Z</time>
      </trkpt>
      <trkpt lat="49.40421" lon="3.00496">
        <ele>31.86</ele>
        <time>2021-07-28T11:56:43Z</time>
      </trkpt>
      <trkpt lat="49.40418" lon="3.00486">
        <ele>31.86</ele>
        <time>2021-07-28T11:56:44Z</time>
      </trkpt>
      <trkpt lat="49.40419" lon="3.00481">
        <ele>31.86</ele>
        <time>2021-07-28T11:56:45Z</time>
      </trkpt>
      <trkpt lat="49.40422" lon="3.00469">
        <ele>31.38</ele>
        <time>2021-07-28T11:56:46Z</time>
      </trkpt>
      <trkpt lat="49.40439" lon="3.00379">
        <ele>29.94</ele>
        <time>2021-07-28T11:56:56Z</time>
      </trkpt>
      <trkpt lat="49.40439" lon="3.00334">
        <ele>30.9</ele>
        <time>2021-07-28T11:57:03Z</time>
      </trkpt>
      <trkpt lat="49.40439" lon="3.00329">
        <ele>31.38</ele>
        <time>2021-07-28T11:57:17Z</time>
      </trkpt>
      <trkpt lat="49.40439" lon="3.00329">
        <ele>31.86</ele>
        <time>2021-07-28T12:01:35Z</time>
      </trkpt>
      <trkpt lat="49.40439" lon="3.00328">
        <ele>31.86</ele>
        <time>2021-07-28T12:01:36Z</time>
      </trkpt>
      <trkpt lat="49.40438" lon="3.00326">
        <ele>31.86</ele>
        <time>2021-07-28T12:01:37Z</time>
      </trkpt>
      <trkpt lat="49.40438" lon="3.00323">
        <ele>31.86</ele>
        <time>2021-07-28T12:01:38Z</time>
      </trkpt>
      <trkpt lat="49.40438" lon="3.00319">
        <ele>31.86</ele>
        <time>2021-07-28T12:01:39Z</time>
      </trkpt>
      <trkpt lat="49.40437" lon="3.00314">
        <ele>31.86</ele>
        <time>2021-07-28T12:01:40Z</time>
      </trkpt>
      <trkpt lat="49.40419" lon="3.00221">
        <ele>32.34</ele>
        <time>2021-07-28T12:01:50Z</time>
      </trkpt>
      <trkpt lat="49.40375" lon="3.00012">
        <ele>33.3</ele>
        <time>2021-07-28T12:02:05Z</time>
      </trkpt>
      <trkpt lat="49.40288" lon="2.99613">
        <ele>34.26</ele>
        <time>2021-07-28T12:02:30Z</time>
      </trkpt>
      <trkpt lat="49.40242" lon="2.99374">
        <ele>34.74</ele>
        <time>2021-07-28T12:02:46Z</time>
      </trkpt>
      <trkpt lat="49.4024" lon="2.99365">
        <ele>34.74</ele>
        <time>2021-07-28T12:02:47Z</time>
      </trkpt>
      <trkpt lat="49.40242" lon="2.99348">
        <ele>35.23</ele>
        <time>2021-07-28T12:02:49Z</time>
      </trkpt>
      <trkpt lat="49.40245" lon="2.99337">
        <ele>35.23</ele>
        <time>2021-07-28T12:02:50Z</time>
      </trkpt>
      <trkpt lat="49.40243" lon="2.99329">
        <ele>35.23</ele>
        <time>2021-07-28T12:02:51Z</time>
      </trkpt>
      <trkpt lat="49.40231" lon="2.99319">
        <ele>35.23</ele>
        <time>2021-07-28T12:02:53Z</time>
      </trkpt>
      <trkpt lat="49.40228" lon="2.99311">
        <ele>35.23</ele>
        <time>2021-07-28T12:02:54Z</time>
      </trkpt>
      <trkpt lat="49.40225" lon="2.99302">
        <ele>35.71</ele>
        <time>2021-07-28T12:02:55Z</time>
      </trkpt>
      <trkpt lat="49.40189" lon="2.99138">
        <ele>38.59</ele>
        <time>2021-07-28T12:03:07Z</time>
      </trkpt>
      <trkpt lat="49.40159" lon="2.98947">
        <ele>41.47</ele>
        <time>2021-07-28T12:03:19Z</time>
      </trkpt>
      <trkpt lat="49.40173" lon="2.98611">
        <ele>39.07</ele>
        <time>2021-07-28T12:03:37Z</time>
      </trkpt>
      <trkpt lat="49.4019" lon="2.9827">
        <ele>38.11</ele>
        <time>2021-07-28T12:03:53Z</time>
      </trkpt>
      <trkpt lat="49.4021" lon="2.97817">
        <ele>39.07</ele>
        <time>2021-07-28T12:04:15Z</time>
      </trkpt>
      <trkpt lat="49.40222" lon="2.97589">
        <ele>39.07</ele>
        <time>2021-07-28T12:04:28Z</time>
      </trkpt>
      <trkpt lat="49.40223" lon="2.97556">
        <ele>38.59</ele>
        <time>2021-07-28T12:04:36Z</time>
      </trkpt>
      <trkpt lat="49.40227" lon="2.97454">
        <ele>38.11</ele>
        <time>2021-07-28T12:04:46Z</time>
      </trkpt>
      <trkpt lat="49.40238" lon="2.9722">
        <ele>37.63</ele>
        <time>2021-07-28T12:05:02Z</time>
      </trkpt>
      <trkpt lat="49.40256" lon="2.96868">
        <ele>37.15</ele>
        <time>2021-07-28T12:05:20Z</time>
      </trkpt>
      <trkpt lat="49.40252" lon="2.96618">
        <ele>37.63</ele>
        <time>2021-07-28T12:05:33Z</time>
      </trkpt>
      <trkpt lat="49.4022" lon="2.96397">
        <ele>35.71</ele>
        <time>2021-07-28T12:05:45Z</time>
      </trkpt>
      <trkpt lat="49.40219" lon="2.96378">
        <ele>35.23</ele>
        <time>2021-07-28T12:05:46Z</time>
      </trkpt>
      <trkpt lat="49.40219" lon="2.9636">
        <ele>35.23</ele>
        <time>2021-07-28T12:05:47Z</time>
      </trkpt>
      <trkpt lat="49.40267" lon="2.96161">
        <ele>34.26</ele>
        <time>2021-07-28T12:05:58Z</time>
      </trkpt>
      <trkpt lat="49.40355" lon="2.95835">
        <ele>35.71</ele>
        <time>2021-07-28T12:06:13Z</time>
      </trkpt>
      <trkpt lat="49.40449" lon="2.95482">
        <ele>36.19</ele>
        <time>2021-07-28T12:06:29Z</time>
      </trkpt>
      <trkpt lat="49.40556" lon="2.95086">
        <ele>34.74</ele>
        <time>2021-07-28T12:06:45Z</time>
      </trkpt>
      <trkpt lat="49.40657" lon="2.94709">
        <ele>32.82</ele>
        <time>2021-07-28T12:07:01Z</time>
      </trkpt>
      <trkpt lat="49.40774" lon="2.9427">
        <ele>29.94</ele>
        <time>2021-07-28T12:07:18Z</time>
      </trkpt>
      <trkpt lat="49.40897" lon="2.93812">
        <ele>30.42</ele>
        <time>2021-07-28T12:07:37Z</time>
      </trkpt>
      <trkpt lat="49.41018" lon="2.93366">
        <ele>32.82</ele>
        <time>2021-07-28T12:07:56Z</time>
      </trkpt>
      <trkpt lat="49.41115" lon="2.93001">
        <ele>35.23</ele>
        <time>2021-07-28T12:08:12Z</time>
      </trkpt>
      <trkpt lat="49.41263" lon="2.92468">
        <ele>32.82</ele>
        <time>2021-07-28T12:08:35Z</time>
      </trkpt>
      <trkpt lat="49.41328" lon="2.92256">
        <ele>31.38</ele>
        <time>2021-07-28T12:08:44Z</time>
      </trkpt>
      <trkpt lat="49.41335" lon="2.92239">
        <ele>30.9</ele>
        <time>2021-07-28T12:08:45Z</time>
      </trkpt>
      <trkpt lat="49.41344" lon="2.92223">
        <ele>29.46</ele>
        <time>2021-07-28T12:08:46Z</time>
      </trkpt>
      <trkpt lat="49.41353" lon="2.92209">
        <ele>28.98</ele>
        <time>2021-07-28T12:08:47Z</time>
      </trkpt>
      <trkpt lat="49.4136" lon="2.92199">
        <ele>29.46</ele>
        <time>2021-07-28T12:08:48Z</time>
      </trkpt>
      <trkpt lat="49.41381" lon="2.92176">
        <ele>30.9</ele>
        <time>2021-07-28T12:08:51Z</time>
      </trkpt>
      <trkpt lat="49.41387" lon="2.92167">
        <ele>30.9</ele>
        <time>2021-07-28T12:08:52Z</time>
      </trkpt>
      <trkpt lat="49.41391" lon="2.92158">
        <ele>31.38</ele>
        <time>2021-07-28T12:08:53Z</time>
      </trkpt>
      <trkpt lat="49.41394" lon="2.92145">
        <ele>31.38</ele>
        <time>2021-07-28T12:08:54Z</time>
      </trkpt>
      <trkpt lat="49.41396" lon="2.92132">
        <ele>31.86</ele>
        <time>2021-07-28T12:08:55Z</time>
      </trkpt>
      <trkpt lat="49.41398" lon="2.92118">
        <ele>31.38</ele>
        <time>2021-07-28T12:08:56Z</time>
      </trkpt>
      <trkpt lat="49.41431" lon="2.91921">
        <ele>31.86</ele>
        <time>2021-07-28T12:09:08Z</time>
      </trkpt>
      <trkpt lat="49.41525" lon="2.91618">
        <ele>33.78</ele>
        <time>2021-07-28T12:09:25Z</time>
      </trkpt>
      <trkpt lat="49.4162" lon="2.91319">
        <ele>29.94</ele>
        <time>2021-07-28T12:09:39Z</time>
      </trkpt>
      <trkpt lat="49.41697" lon="2.91069">
        <ele>32.34</ele>
        <time>2021-07-28T12:09:50Z</time>
      </trkpt>
      <trkpt lat="49.4177" lon="2.90869">
        <ele>34.74</ele>
        <time>2021-07-28T12:10:01Z</time>
      </trkpt>
      <trkpt lat="49.41836" lon="2.90791">
        <ele>33.78</ele>
        <time>2021-07-28T12:10:08Z</time>
      </trkpt>
      <trkpt lat="49.41979" lon="2.90669">
        <ele>35.71</ele>
        <time>2021-07-28T12:10:20Z</time>
      </trkpt>
      <trkpt lat="49.42065" lon="2.90507">
        <ele>40.99</ele>
        <time>2021-07-28T12:10:30Z</time>
      </trkpt>
      <trkpt lat="49.42149" lon="2.90259">
        <ele>35.23</ele>
        <time>2021-07-28T12:10:42Z</time>
      </trkpt>
      <trkpt lat="49.42175" lon="2.90063">
        <ele>33.78</ele>
        <time>2021-07-28T12:10:50Z</time>
      </trkpt>
      <trkpt lat="49.42153" lon="2.89836">
        <ele>33.3</ele>
        <time>2021-07-28T12:10:59Z</time>
      </trkpt>
      <trkpt lat="49.42152" lon="2.89659">
        <ele>34.26</ele>
        <time>2021-07-28T12:11:06Z</time>
      </trkpt>
      <trkpt lat="49.42204" lon="2.89456">
        <ele>37.15</ele>
        <time>2021-07-28T12:11:15Z</time>
      </trkpt>
      <trkpt lat="49.42342" lon="2.89009">
        <ele>37.63</ele>
        <time>2021-07-28T12:11:33Z</time>
      </trkpt>
      <trkpt lat="49.42488" lon="2.8854">
        <ele>37.63</ele>
        <time>2021-07-28T12:11:52Z</time>
      </trkpt>
      <trkpt lat="49.42603" lon="2.88155">
        <ele>37.63</ele>
        <time>2021-07-28T12:12:08Z</time>
      </trkpt>
      <trkpt lat="49.42608" lon="2.88133">
        <ele>36.67</ele>
        <time>2021-07-28T12:12:09Z</time>
      </trkpt>
      <trkpt lat="49.42613" lon="2.88112">
        <ele>35.71</ele>
        <time>2021-07-28T12:12:10Z</time>
      </trkpt>
      <trkpt lat="49.42615" lon="2.88073">
        <ele>35.23</ele>
        <time>2021-07-28T12:12:11Z</time>
      </trkpt>
      <trkpt lat="49.42615" lon="2.88073">
        <ele>34.74</ele>
        <time>2021-07-28T12:12:12Z</time>
      </trkpt>
      <trkpt lat="49.42613" lon="2.8805">
        <ele>34.26</ele>
        <time>2021-07-28T12:12:13Z</time>
      </trkpt>
      <trkpt lat="49.42612" lon="2.88028">
        <ele>34.26</ele>
        <time>2021-07-28T12:12:14Z</time>
      </trkpt>
      <trkpt lat="49.42582" lon="2.87768">
        <ele>31.38</ele>
        <time>2021-07-28T12:12:28Z</time>
      </trkpt>
      <trkpt lat="49.42573" lon="2.87686">
        <ele>30.9</ele>
        <time>2021-07-28T12:12:34Z</time>
      </trkpt>
      <trkpt lat="49.42573" lon="2.87677">
        <ele>30.9</ele>
        <time>2021-07-28T12:12:35Z</time>
      </trkpt>
      <trkpt lat="49.42586" lon="2.87658">
        <ele>31.86</ele>
        <time>2021-07-28T12:12:37Z</time>
      </trkpt>
      <trkpt lat="49.42589" lon="2.87647">
        <ele>31.86</ele>
        <time>2021-07-28T12:12:38Z</time>
      </trkpt>
      <trkpt lat="49.42592" lon="2.87637">
        <ele>31.86</ele>
        <time>2021-07-28T12:12:39Z</time>
      </trkpt>
      <trkpt lat="49.4259" lon="2.87622">
        <ele>31.38</ele>
        <time>2021-07-28T12:12:40Z</time>
      </trkpt>
      <trkpt lat="49.42585" lon="2.87611">
        <ele>31.86</ele>
        <time>2021-07-28T12:12:41Z</time>
      </trkpt>
      <trkpt lat="49.4258" lon="2.87604">
        <ele>31.86</ele>
        <time>2021-07-28T12:12:42Z</time>
      </trkpt>
      <trkpt lat="49.42573" lon="2.87599">
        <ele>31.38</ele>
        <time>2021-07-28T12:12:43Z</time>
      </trkpt>
      <trkpt lat="49.42565" lon="2.87599">
        <ele>30.9</ele>
        <time>2021-07-28T12:12:44Z</time>
      </trkpt>
      <trkpt lat="49.4256" lon="2.87604">
        <ele>30.42</ele>
        <time>2021-07-28T12:12:45Z</time>
      </trkpt>
      <trkpt lat="49.42553" lon="2.8761">
        <ele>29.94</ele>
        <time>2021-07-28T12:12:46Z</time>
      </trkpt>
      <trkpt lat="49.4255" lon="2.87612">
        <ele>29.46</ele>
        <time>2021-07-28T12:12:47Z</time>
      </trkpt>
      <trkpt lat="49.42535" lon="2.87628">
        <ele>30.42</ele>
        <time>2021-07-28T12:12:48Z</time>
      </trkpt>
      <trkpt lat="49.42526" lon="2.87627">
        <ele>30.42</ele>
        <time>2021-07-28T12:12:49Z</time>
      </trkpt>
      <trkpt lat="49.42516" lon="2.87626">
        <ele>30.42</ele>
        <time>2021-07-28T12:12:50Z</time>
      </trkpt>
      <trkpt lat="49.42505" lon="2.87625">
        <ele>29.94</ele>
        <time>2021-07-28T12:12:51Z</time>
      </trkpt>
      <trkpt lat="49.42359" lon="2.87603">
        <ele>26.57</ele>
        <time>2021-07-28T12:13:02Z</time>
      </trkpt>
      <trkpt lat="49.42183" lon="2.87576">
        <ele>22.73</ele>
        <time>2021-07-28T12:13:13Z</time>
      </trkpt>
      <trkpt lat="49.42005" lon="2.87548">
        <ele>16.96</ele>
        <time>2021-07-28T12:13:23Z</time>
      </trkpt>
      <trkpt lat="49.41732" lon="2.87506">
        <ele>13.12</ele>
        <time>2021-07-28T12:13:37Z</time>
      </trkpt>
      <trkpt lat="49.415" lon="2.8747">
        <ele>12.15</ele>
        <time>2021-07-28T12:13:49Z</time>
      </trkpt>
      <trkpt lat="49.41263" lon="2.87435">
        <ele>7.83</ele>
        <time>2021-07-28T12:14:01Z</time>
      </trkpt>
      <trkpt lat="49.41074" lon="2.87406">
        <ele>4.94</ele>
        <time>2021-07-28T12:14:11Z</time>
      </trkpt>
      <trkpt lat="49.40848" lon="2.87374">
        <ele>7.83</ele>
        <time>2021-07-28T12:14:23Z</time>
      </trkpt>
      <trkpt lat="49.40595" lon="2.87336">
        <ele>5.91</ele>
        <time>2021-07-28T12:14:36Z</time>
      </trkpt>
      <trkpt lat="49.40344" lon="2.87308">
        <ele>15.04</ele>
        <time>2021-07-28T12:14:49Z</time>
      </trkpt>
      <trkpt lat="49.40112" lon="2.87301">
        <ele>23.21</ele>
        <time>2021-07-28T12:15:01Z</time>
      </trkpt>
      <trkpt lat="49.39896" lon="2.87298">
        <ele>21.77</ele>
        <time>2021-07-28T12:15:13Z</time>
      </trkpt>
      <trkpt lat="49.39834" lon="2.87295">
        <ele>23.69</ele>
        <time>2021-07-28T12:15:18Z</time>
      </trkpt>
      <trkpt lat="49.39824" lon="2.87293">
        <ele>27.53</ele>
        <time>2021-07-28T12:15:19Z</time>
      </trkpt>
      <trkpt lat="49.39817" lon="2.87291">
        <ele>30.42</ele>
        <time>2021-07-28T12:15:20Z</time>
      </trkpt>
      <trkpt lat="49.39817" lon="2.87291">
        <ele>32.34</ele>
        <time>2021-07-28T12:15:21Z</time>
      </trkpt>
      <trkpt lat="49.39815" lon="2.87264">
        <ele>34.74</ele>
        <time>2021-07-28T12:15:22Z</time>
      </trkpt>
      <trkpt lat="49.39797" lon="2.8724">
        <ele>36.67</ele>
        <time>2021-07-28T12:15:23Z</time>
      </trkpt>
      <trkpt lat="49.39797" lon="2.8724">
        <ele>37.15</ele>
        <time>2021-07-28T12:15:24Z</time>
      </trkpt>
      <trkpt lat="49.39799" lon="2.87226">
        <ele>37.63</ele>
        <time>2021-07-28T12:15:25Z</time>
      </trkpt>
      <trkpt lat="49.39801" lon="2.87212">
        <ele>38.11</ele>
        <time>2021-07-28T12:15:26Z</time>
      </trkpt>
      <trkpt lat="49.39803" lon="2.87195">
        <ele>39.07</ele>
        <time>2021-07-28T12:15:27Z</time>
      </trkpt>
      <trkpt lat="49.39841" lon="2.87011">
        <ele>43.88</ele>
        <time>2021-07-28T12:15:36Z</time>
      </trkpt>
      <trkpt lat="49.39925" lon="2.86646">
        <ele>48.2</ele>
        <time>2021-07-28T12:15:50Z</time>
      </trkpt>
      <trkpt lat="49.40054" lon="2.86073">
        <ele>53.97</ele>
        <time>2021-07-28T12:16:10Z</time>
      </trkpt>
      <trkpt lat="49.4015" lon="2.85639">
        <ele>52.53</ele>
        <time>2021-07-28T12:16:26Z</time>
      </trkpt>
      <trkpt lat="49.40286" lon="2.85032">
        <ele>54.45</ele>
        <time>2021-07-28T12:16:47Z</time>
      </trkpt>
      <trkpt lat="49.40394" lon="2.8454">
        <ele>56.86</ele>
        <time>2021-07-28T12:17:05Z</time>
      </trkpt>
      <trkpt lat="49.40477" lon="2.84178">
        <ele>56.37</ele>
        <time>2021-07-28T12:17:20Z</time>
      </trkpt>
      <trkpt lat="49.40535" lon="2.83921">
        <ele>56.37</ele>
        <time>2021-07-28T12:17:33Z</time>
      </trkpt>
      <trkpt lat="49.40553" lon="2.83824">
        <ele>57.34</ele>
        <time>2021-07-28T12:17:40Z</time>
      </trkpt>
      <trkpt lat="49.40555" lon="2.83817">
        <ele>57.34</ele>
        <time>2021-07-28T12:17:41Z</time>
      </trkpt>
      <trkpt lat="49.40556" lon="2.8381">
        <ele>57.82</ele>
        <time>2021-07-28T12:17:42Z</time>
      </trkpt>
      <trkpt lat="49.40633" lon="2.83736">
        <ele>55.89</ele>
        <time>2021-07-28T12:17:53Z</time>
      </trkpt>
      <trkpt lat="49.40809" lon="2.83582">
        <ele>53.49</ele>
        <time>2021-07-28T12:18:14Z</time>
      </trkpt>
      <trkpt lat="49.4096" lon="2.83446">
        <ele>46.76</ele>
        <time>2021-07-28T12:18:32Z</time>
      </trkpt>
      <trkpt lat="49.41034" lon="2.83361">
        <ele>44.84</ele>
        <time>2021-07-28T12:18:42Z</time>
      </trkpt>
      <trkpt lat="49.41097" lon="2.83285">
        <ele>44.36</ele>
        <time>2021-07-28T12:18:52Z</time>
      </trkpt>
      <trkpt lat="49.41141" lon="2.83235">
        <ele>44.84</ele>
        <time>2021-07-28T12:19:03Z</time>
      </trkpt>
      <trkpt lat="49.41222" lon="2.83147">
        <ele>44.36</ele>
        <time>2021-07-28T12:19:14Z</time>
      </trkpt>
      <trkpt lat="49.41322" lon="2.83042">
        <ele>43.4</ele>
        <time>2021-07-28T12:19:28Z</time>
      </trkpt>
      <trkpt lat="49.41336" lon="2.8303">
        <ele>42.92</ele>
        <time>2021-07-28T12:19:36Z</time>
      </trkpt>
      <trkpt lat="49.4135" lon="2.83014">
        <ele>42.44</ele>
        <time>2021-07-28T12:20:28Z</time>
      </trkpt>
      <trkpt lat="49.41367" lon="2.82995">
        <ele>41.95</ele>
        <time>2021-07-28T12:20:32Z</time>
      </trkpt>
      <trkpt lat="49.41427" lon="2.82924">
        <ele>40.03</ele>
        <time>2021-07-28T12:20:44Z</time>
      </trkpt>
      <trkpt lat="49.41473" lon="2.8287">
        <ele>39.07</ele>
        <time>2021-07-28T12:20:56Z</time>
      </trkpt>
      <trkpt lat="49.41478" lon="2.82865">
        <ele>38.59</ele>
        <time>2021-07-28T12:20:58Z</time>
      </trkpt>
      <trkpt lat="49.41483" lon="2.82872">
        <ele>38.11</ele>
        <time>2021-07-28T12:20:59Z</time>
      </trkpt>
      <trkpt lat="49.41486" lon="2.82878">
        <ele>38.11</ele>
        <time>2021-07-28T12:21:00Z</time>
      </trkpt>
      <trkpt lat="49.4149" lon="2.82884">
        <ele>37.63</ele>
        <time>2021-07-28T12:21:01Z</time>
      </trkpt>
      <trkpt lat="49.41498" lon="2.82899">
        <ele>37.63</ele>
        <time>2021-07-28T12:21:02Z</time>
      </trkpt>
      <trkpt lat="49.41546" lon="2.82992">
        <ele>40.99</ele>
        <time>2021-07-28T12:21:13Z</time>
      </trkpt>
      <trkpt lat="49.41555" lon="2.83006">
        <ele>42.44</ele>
        <time>2021-07-28T12:21:15Z</time>
      </trkpt>
      <trkpt lat="49.4156" lon="2.8301">
        <ele>42.92</ele>
        <time>2021-07-28T12:21:16Z</time>
      </trkpt>
      <trkpt lat="49.41565" lon="2.83014">
        <ele>42.92</ele>
        <time>2021-07-28T12:21:17Z</time>
      </trkpt>
      <trkpt lat="49.41569" lon="2.83018">
        <ele>43.88</ele>
        <time>2021-07-28T12:21:18Z</time>
      </trkpt>
      <trkpt lat="49.41574" lon="2.83022">
        <ele>44.36</ele>
        <time>2021-07-28T12:21:19Z</time>
      </trkpt>
      <trkpt lat="49.41599" lon="2.83037">
        <ele>44.84</ele>
        <time>2021-07-28T12:21:24Z</time>
      </trkpt>
      <trkpt lat="49.41676" lon="2.8308">
        <ele>43.4</ele>
        <time>2021-07-28T12:21:37Z</time>
      </trkpt>
      <trkpt lat="49.41707" lon="2.83105">
        <ele>45.32</ele>
        <time>2021-07-28T12:21:46Z</time>
      </trkpt>
      <trkpt lat="49.41711" lon="2.83104">
        <ele>45.32</ele>
        <time>2021-07-28T12:21:47Z</time>
      </trkpt>
      <trkpt lat="49.41716" lon="2.83103">
        <ele>45.32</ele>
        <time>2021-07-28T12:21:48Z</time>
      </trkpt>
      <trkpt lat="49.41722" lon="2.83102">
        <ele>45.32</ele>
        <time>2021-07-28T12:21:49Z</time>
      </trkpt>
      <trkpt lat="49.41733" lon="2.831">
        <ele>45.32</ele>
        <time>2021-07-28T12:21:50Z</time>
      </trkpt>
      <trkpt lat="49.41773" lon="2.83072">
        <ele>45.8</ele>
        <time>2021-07-28T12:22:01Z</time>
      </trkpt>
      <trkpt lat="49.41808" lon="2.83029">
        <ele>44.84</ele>
        <time>2021-07-28T12:22:16Z</time>
      </trkpt>
    </trkseg>
  </trk>
</gpx>